createdAt,value
2019-04-30T00:00:56.853Z,27.13
2019-04-30T00:04:37.537Z,29.63
2019-04-30T00:07:58.737Z,30.80
2019-04-30T00:11:21.947Z,26.53
2019-04-30T00:14:45.186Z,26.73
2019-04-30T00:18:08.404Z,27.03
2019-04-30T00:21:32.494Z,24.57
2019-04-30T00:24:55.758Z,28.33
2019-04-30T00:28:18.830Z,26.03
2019-04-30T00:31:41.883Z,27.93
2019-04-30T00:35:07.358Z,33.00
2019-04-30T00:38:34.270Z,27.20
2019-04-30T00:41:56.812Z,31.03
2019-04-30T00:45:20.037Z,30.40
2019-04-30T00:48:43.203Z,32.10
2019-04-30T00:52:06.307Z,29.37
2019-04-30T00:55:29.696Z,37.17
2019-04-30T00:58:57.475Z,30.60
2019-04-30T01:02:41.870Z,31.30
2019-04-30T01:06:07.238Z,32.33
2019-04-30T01:09:30.542Z,31.17
2019-04-30T01:12:53.894Z,32.43
2019-04-30T01:16:17.152Z,32.63
2019-04-30T01:19:40.519Z,32.37
2019-04-30T01:23:09.888Z,31.07
2019-04-30T01:26:31.068Z,30.10
2019-04-30T01:29:58.507Z,26.63
2019-04-30T01:33:21.674Z,35.43
2019-04-30T01:36:50.740Z,30.10
2019-04-30T01:40:13.560Z,30.90
2019-04-30T01:43:35.500Z,35.47
2019-04-30T01:46:58.912Z,32.80
2019-04-30T01:50:24.705Z,31.93
2019-04-30T01:53:48.488Z,33.97
2019-04-30T01:57:30.417Z,30.93
2019-04-30T02:00:59.503Z,33.20
2019-04-30T02:04:26.301Z,30.43
2019-04-30T02:07:49.371Z,33.30
2019-04-30T02:11:12.688Z,32.73
2019-04-30T02:14:35.781Z,35.57
2019-04-30T02:17:59.223Z,35.13
2019-04-30T02:21:22.903Z,31.97
2019-04-30T02:24:48.649Z,33.37
2019-04-30T02:28:11.895Z,31.73
2019-04-30T02:31:35.147Z,33.63
2019-04-30T02:35:20.811Z,31.57
2019-04-30T02:38:49.240Z,35.17
2019-04-30T02:42:13.236Z,30.80
2019-04-30T02:45:40.106Z,34.87
2019-04-30T02:49:05.572Z,37.43
2019-04-30T02:52:31.490Z,33.27
2019-04-30T02:55:56.822Z,36.00
2019-04-30T02:59:20.353Z,33.13
2019-04-30T03:02:43.614Z,35.63
2019-04-30T03:06:06.736Z,33.77
2019-04-30T03:09:30.405Z,35.10
2019-04-30T03:12:55.671Z,30.37
2019-04-30T03:16:23.035Z,38.23
2019-04-30T03:20:20.250Z,34.93
2019-04-30T03:23:38.988Z,35.20
2019-04-30T03:27:02.193Z,30.87
2019-04-30T03:30:25.286Z,33.90
2019-04-30T03:33:52.238Z,32.47
2019-04-30T03:37:13.410Z,33.57
2019-04-30T03:40:36.496Z,32.20
2019-04-30T03:44:16.753Z,31.97
2019-04-30T03:47:25.763Z,36.63
2019-04-30T03:50:55.812Z,32.43
2019-04-30T03:54:13.742Z,33.60
2019-04-30T03:57:39.697Z,36.20
2019-04-30T04:01:19.592Z,32.57
2019-04-30T04:04:52.946Z,34.20
2019-04-30T04:08:36.277Z,37.40
2019-04-30T04:12:20.368Z,36.27
2019-04-30T04:15:43.972Z,36.33
2019-04-30T04:19:09.527Z,40.40
2019-04-30T04:22:31.969Z,38.97
2019-04-30T04:25:55.174Z,38.87
2019-04-30T04:29:19.655Z,36.27
2019-04-30T04:32:43.193Z,40.20
2019-04-30T04:36:06.199Z,36.40
2019-04-30T04:39:29.799Z,39.07
2019-04-30T04:42:56.113Z,37.90
2019-04-30T04:46:20.592Z,36.50
2019-04-30T04:49:43.759Z,38.33
2019-04-30T04:53:08.880Z,35.57
2019-04-30T04:56:32.177Z,33.07
2019-04-30T04:59:55.346Z,36.10
2019-04-30T05:03:26.206Z,37.13
2019-04-30T05:06:49.960Z,35.27
2019-04-30T05:10:13.595Z,40.17
2019-04-30T05:13:36.637Z,38.00
2019-04-30T05:17:00.953Z,37.93
2019-04-30T05:20:26.506Z,36.80
2019-04-30T05:23:49.712Z,42.40
2019-04-30T05:27:12.814Z,40.90
2019-04-30T05:30:35.978Z,42.77
2019-04-30T05:33:59.068Z,39.90
2019-04-30T05:37:22.499Z,39.17
2019-04-30T05:40:45.750Z,39.40
2019-04-30T05:44:09.151Z,39.37
2019-04-30T05:47:32.262Z,36.37
2019-04-30T05:50:56.246Z,35.30
2019-04-30T05:54:19.967Z,33.27
2019-04-30T05:57:53.024Z,32.17
2019-04-30T06:01:09.659Z,41.13
2019-04-30T06:04:33.031Z,32.60
2019-04-30T06:07:56.131Z,33.63
2019-04-30T06:11:39.323Z,37.50
2019-04-30T06:15:25.925Z,31.10
2019-04-30T06:18:49.056Z,32.90
2019-04-30T06:22:12.151Z,35.00
2019-04-30T06:25:52.871Z,32.00
2019-04-30T06:29:00.743Z,33.50
2019-04-30T06:32:29.424Z,32.90
2019-04-30T06:35:54.706Z,35.00
2019-04-30T06:39:18.763Z,37.20
2019-04-30T06:42:42.279Z,32.43
2019-04-30T06:46:05.295Z,41.13
2019-04-30T06:49:29.508Z,33.63
2019-04-30T06:52:56.843Z,37.73
2019-04-30T06:56:18.993Z,30.33
2019-04-30T06:59:42.139Z,31.37
2019-04-30T07:03:06.508Z,29.27
2019-04-30T07:06:32.547Z,32.00
2019-04-30T07:10:02.410Z,30.43
2019-04-30T07:13:29.727Z,32.42
2019-04-30T07:16:55.224Z,30.68
2019-04-30T07:20:19.150Z,28.92
2019-04-30T07:23:42.475Z,34.20
2019-04-30T07:27:05.552Z,32.40
2019-04-30T07:30:30.840Z,32.93
2019-04-30T07:33:56.069Z,31.25
2019-04-30T07:37:24.100Z,35.30
2019-04-30T07:40:44.424Z,32.83
2019-04-30T07:44:10.833Z,31.87
2019-04-30T07:47:32.610Z,35.88
2019-04-30T07:50:55.977Z,33.15
2019-04-30T07:54:19.115Z,34.15
2019-04-30T07:57:42.206Z,32.75
2019-04-30T08:01:05.287Z,31.80
2019-04-30T08:04:50.931Z,32.85
2019-04-30T08:08:20.924Z,31.15
2019-04-30T08:11:41.857Z,32.88
2019-04-30T08:15:04.069Z,35.08
2019-04-30T08:18:27.214Z,31.12
2019-04-30T08:21:50.368Z,30.77
2019-04-30T08:25:13.512Z,32.58
2019-04-30T08:28:38.480Z,32.67
2019-04-30T08:32:01.980Z,34.90
2019-04-30T08:35:25.054Z,32.75
2019-04-30T08:38:49.564Z,32.58
2019-04-30T08:42:12.969Z,37.98
2019-04-30T08:45:36.014Z,35.48
2019-04-30T08:48:59.759Z,39.13
2019-04-30T08:52:25.990Z,41.55
2019-04-30T08:55:49.244Z,39.13
2019-04-30T08:59:12.402Z,39.05
2019-04-30T09:02:35.638Z,35.20
2019-04-30T09:06:21.672Z,40.17
2019-04-30T09:09:45.081Z,35.30
2019-04-30T09:13:10.018Z,36.90
2019-04-30T09:16:33.266Z,34.43
2019-04-30T09:19:58.917Z,34.60
2019-04-30T09:23:22.077Z,32.20
2019-04-30T09:26:45.470Z,34.30
2019-04-30T09:30:10.364Z,33.92
2019-04-30T09:33:33.620Z,31.60
2019-04-30T09:36:58.700Z,33.00
2019-04-30T09:40:22.083Z,37.28
2019-04-30T09:43:45.414Z,30.37
2019-04-30T09:47:09.004Z,33.70
2019-04-30T09:50:32.307Z,33.35
2019-04-30T09:53:59.503Z,32.93
2019-04-30T09:57:20.382Z,32.60
2019-04-30T10:00:43.477Z,33.95
2019-04-30T10:04:09.873Z,31.68
2019-04-30T10:07:32.958Z,28.20
2019-04-30T10:11:10.697Z,27.67
2019-04-30T10:14:33.905Z,27.05
2019-04-30T10:17:57.159Z,25.20
2019-04-30T10:21:20.401Z,29.07
2019-04-30T10:24:43.509Z,24.27
2019-04-30T10:28:06.914Z,25.82
2019-04-30T10:31:30.418Z,25.30
2019-04-30T10:34:53.911Z,28.83
2019-04-30T10:38:17.065Z,28.00
2019-04-30T10:41:40.399Z,27.02
2019-04-30T10:45:14.645Z,27.40
2019-04-30T10:48:37.683Z,26.12
2019-04-30T10:52:01.231Z,25.60
2019-04-30T10:55:25.673Z,26.02
2019-04-30T10:58:48.757Z,26.77
2019-04-30T11:02:11.775Z,29.35
2019-04-30T11:05:34.841Z,27.62
2019-04-30T11:08:58.191Z,26.15
2019-04-30T11:12:21.200Z,27.77
2019-04-30T11:15:44.607Z,26.40
2019-04-30T11:19:09.408Z,28.62
2019-04-30T11:22:33.240Z,28.45
2019-04-30T11:25:57.003Z,29.55
2019-04-30T11:29:23.021Z,28.77
2019-04-30T11:32:45.894Z,27.22
2019-04-30T11:36:09.670Z,29.42
2019-04-30T11:39:32.834Z,28.27
2019-04-30T11:42:56.327Z,27.05
2019-04-30T11:47:28.826Z,24.77
2019-04-30T11:50:51.975Z,25.85
2019-04-30T11:54:15.037Z,26.48
2019-04-30T11:57:39.722Z,27.25
2019-04-30T12:01:04.082Z,26.30
2019-04-30T12:04:27.172Z,28.07
2019-04-30T12:08:03.451Z,27.60
2019-04-30T12:11:31.941Z,25.25
2019-04-30T12:14:55.126Z,26.05
2019-04-30T12:18:18.180Z,26.30
2019-04-30T12:21:41.447Z,28.30
2019-04-30T12:25:05.497Z,21.57
2019-04-30T12:28:29.896Z,22.48
2019-04-30T12:31:55.244Z,23.15
2019-04-30T12:35:18.402Z,25.97
2019-04-30T12:38:41.396Z,21.35
2019-04-30T12:42:04.730Z,22.50
2019-04-30T12:45:29.432Z,21.77
2019-04-30T12:49:00.862Z,19.57
2019-04-30T12:52:39.635Z,23.07
2019-04-30T12:56:13.650Z,23.67
2019-04-30T12:59:36.686Z,19.95
2019-04-30T13:02:59.901Z,21.68
2019-04-30T13:06:25.713Z,21.62
2019-04-30T13:09:50.042Z,21.65
2019-04-30T13:13:14.465Z,22.58
2019-04-30T13:16:39.274Z,21.30
2019-04-30T13:20:02.489Z,20.62
2019-04-30T13:23:25.814Z,22.50
2019-04-30T13:26:49.477Z,18.73
2019-04-30T13:30:26.820Z,22.25
2019-04-30T13:33:54.376Z,19.98
2019-04-30T13:37:19.215Z,20.25
2019-04-30T13:41:08.890Z,19.77
2019-04-30T13:44:35.812Z,21.23
2019-04-30T13:47:58.944Z,19.65
2019-04-30T13:51:22.174Z,21.65
2019-04-30T13:54:47.149Z,19.12
2019-04-30T13:58:10.451Z,19.57
2019-04-30T14:01:33.593Z,18.48
2019-04-30T14:05:13.151Z,18.73
2019-04-30T14:08:41.194Z,23.35
2019-04-30T14:12:04.351Z,20.12
2019-04-30T14:15:29.154Z,20.88
2019-04-30T14:18:58.508Z,19.17
2019-04-30T14:22:21.850Z,18.82
2019-04-30T14:25:55.888Z,21.42
2019-04-30T14:29:10.458Z,23.27
2019-04-30T14:32:33.683Z,21.95
2019-04-30T14:35:56.815Z,23.67
2019-04-30T14:39:20.512Z,23.95
2019-04-30T14:42:50.795Z,23.35
2019-04-30T14:46:40.128Z,25.92
2019-04-30T14:50:10.006Z,25.62
2019-04-30T14:54:05.349Z,24.85
2019-04-30T14:57:46.505Z,27.30
2019-04-30T15:01:39.312Z,24.55
2019-04-30T15:05:09.315Z,25.37
2019-04-30T15:08:32.899Z,25.70
2019-04-30T15:11:56.139Z,23.07
2019-04-30T15:15:19.467Z,25.97
2019-04-30T15:18:43.213Z,22.50
2019-04-30T15:22:08.686Z,24.23
2019-04-30T15:25:34.070Z,22.77
2019-04-30T15:28:59.890Z,26.55
2019-04-30T15:32:23.128Z,23.77
2019-04-30T15:35:48.207Z,24.15
2019-04-30T15:39:39.110Z,26.35
2019-04-30T15:43:04.271Z,24.40
2019-04-30T15:46:27.642Z,26.70
2019-04-30T15:49:50.678Z,24.10
2019-04-30T15:53:16.029Z,25.52
2019-04-30T15:56:40.848Z,27.50
2019-04-30T16:00:05.652Z,27.50
2019-04-30T16:03:31.595Z,27.00
2019-04-30T16:06:58.527Z,26.42
2019-04-30T16:10:36.187Z,28.70
2019-04-30T16:14:19.176Z,29.35
2019-04-30T16:17:44.599Z,28.25
2019-04-30T16:21:09.296Z,27.95
2019-04-30T16:24:33.797Z,25.65
2019-04-30T16:27:57.005Z,30.72
2019-04-30T16:31:20.543Z,28.70
2019-04-30T16:34:44.027Z,29.98
2019-04-30T16:38:09.229Z,25.65
2019-04-30T16:41:32.616Z,26.40
2019-04-30T16:44:56.441Z,27.02
2019-04-30T16:48:19.648Z,26.17
2019-04-30T16:51:44.522Z,29.40
2019-04-30T16:55:08.256Z,28.17
2019-04-30T16:58:51.266Z,43.15
2019-04-30T17:02:14.504Z,28.35
2019-04-30T17:05:55.025Z,28.38
2019-04-30T17:09:28.151Z,26.45
2019-04-30T17:13:01.413Z,30.08
2019-04-30T17:16:26.966Z,27.77
2019-04-30T17:19:50.037Z,29.18
2019-04-30T17:23:13.284Z,28.15
2019-04-30T17:26:36.471Z,28.70
2019-04-30T17:29:59.518Z,29.52
2019-04-30T17:33:25.844Z,26.90
2019-04-30T17:36:49.572Z,26.93
2019-04-30T17:40:13.808Z,26.33
2019-04-30T17:43:36.972Z,26.30
2019-04-30T17:47:00.225Z,28.02
2019-04-30T17:50:25.713Z,28.42
2019-04-30T17:54:09.755Z,28.92
2019-04-30T17:57:34.661Z,25.90
2019-04-30T18:01:00.413Z,25.90
2019-04-30T18:04:26.772Z,27.17
2019-04-30T18:07:49.978Z,28.38
2019-04-30T18:11:19.942Z,29.87
2019-04-30T18:14:45.058Z,30.75
2019-04-30T18:18:21.460Z,26.45
2019-04-30T18:21:50.474Z,27.95
2019-04-30T18:25:33.503Z,27.67
2019-04-30T18:29:02.083Z,30.95
2019-04-30T18:32:32.117Z,29.95
2019-04-30T18:35:55.845Z,29.67
2019-04-30T18:39:20.248Z,27.62
2019-04-30T18:42:45.537Z,25.27
2019-04-30T18:46:13.069Z,30.85
2019-04-30T18:49:36.731Z,30.85
2019-04-30T18:53:05.563Z,28.17
2019-04-30T18:57:02.949Z,26.57
2019-04-30T19:00:40.879Z,26.07
2019-04-30T19:04:15.900Z,31.17
2019-04-30T19:07:50.961Z,29.02
2019-04-30T19:11:29.389Z,34.05
2019-04-30T19:15:13.984Z,27.27
2019-04-30T19:18:50.465Z,28.40
2019-04-30T19:22:13.986Z,27.17
2019-04-30T19:25:38.635Z,27.17
2019-04-30T19:29:02.256Z,27.37
2019-04-30T19:32:25.872Z,33.02
2019-04-30T19:35:50.601Z,28.12
2019-04-30T19:39:16.266Z,32.25
2019-04-30T19:42:40.014Z,28.47
2019-04-30T19:46:03.536Z,27.37
2019-04-30T19:49:30.483Z,28.55
2019-04-30T19:52:55.847Z,29.40
2019-04-30T19:56:20.724Z,27.82
2019-04-30T19:59:45.220Z,30.23
2019-04-30T20:03:08.861Z,31.40
2019-04-30T20:06:32.725Z,30.35
2019-04-30T20:10:01.107Z,32.53
2019-04-30T20:13:31.366Z,30.32
2019-04-30T20:16:49.126Z,31.07
2019-04-30T20:20:14.159Z,31.40
2019-04-30T20:23:38.908Z,30.48
2019-04-30T20:27:09.549Z,35.63
2019-04-30T20:30:30.783Z,29.37
2019-04-30T20:33:55.608Z,29.80
2019-04-30T20:37:19.621Z,30.57
2019-04-30T20:40:57.739Z,30.27
2019-04-30T20:44:10.777Z,32.30
2019-04-30T20:47:35.917Z,31.53
2019-04-30T20:51:01.078Z,27.20
2019-04-30T20:54:26.188Z,29.90
2019-04-30T20:57:49.795Z,31.63
2019-04-30T21:01:13.392Z,29.00
2019-04-30T21:04:36.501Z,33.27
2019-04-30T21:08:03.469Z,28.17
2019-04-30T21:11:28.598Z,34.53
2019-04-30T21:14:51.589Z,31.37
2019-04-30T21:18:14.953Z,32.00
2019-04-30T21:21:38.710Z,30.30
2019-04-30T21:25:03.521Z,29.63
2019-04-30T21:28:29.740Z,29.77
2019-04-30T21:32:12.691Z,29.13
2019-04-30T21:35:44.800Z,30.73
2019-04-30T21:39:12.378Z,32.77
2019-04-30T21:42:35.436Z,30.97
2019-04-30T21:45:59.788Z,35.10
2019-04-30T21:49:24.551Z,31.33
2019-04-30T21:52:49.484Z,33.70
2019-04-30T21:56:12.485Z,33.00
2019-04-30T21:59:35.460Z,31.93
2019-04-30T22:02:59.772Z,32.67
2019-04-30T22:06:25.715Z,32.67
2019-04-30T22:09:48.738Z,31.23
2019-04-30T22:13:11.794Z,38.77
2019-04-30T22:16:34.929Z,32.43
2019-04-30T22:19:59.637Z,37.77
2019-04-30T22:23:25.154Z,34.07
2019-04-30T22:26:48.167Z,34.50
2019-04-30T22:30:11.863Z,31.97
2019-04-30T22:33:35.008Z,36.73
2019-04-30T22:36:58.685Z,35.13
2019-04-30T22:40:29.025Z,32.50
2019-04-30T22:43:52.948Z,34.43
2019-04-30T22:47:16.073Z,34.00
2019-04-30T22:50:39.223Z,34.37
2019-04-30T22:54:02.311Z,36.10
2019-04-30T22:57:25.538Z,35.13
2019-04-30T23:00:50.811Z,38.57
2019-04-30T23:04:21.189Z,39.80
2019-04-30T23:07:44.332Z,38.23
2019-04-30T23:11:07.396Z,38.23
2019-04-30T23:14:30.567Z,41.13
2019-04-30T23:17:55.823Z,40.23
2019-04-30T23:21:18.968Z,36.33
2019-04-30T23:24:42.009Z,40.37
2019-04-30T23:28:05.087Z,37.80
2019-04-30T23:31:28.304Z,41.90
2019-04-30T23:34:51.375Z,43.47
2019-04-30T23:38:14.510Z,40.37
2019-04-30T23:41:37.567Z,43.17
2019-04-30T23:45:00.790Z,40.07
2019-04-30T23:48:25.737Z,38.90
2019-04-30T23:51:50.535Z,42.97
2019-04-30T23:55:13.863Z,42.37
2019-04-30T23:58:36.966Z,43.83
